sensor_id;sensor_type;location;lat;lon;timestamp;temperature;humidity
17333;DHT22;8784;50.94667800;7.08448400;2022-10-22T00:00:04;15.80;99.90
17333;DHT22;8784;50.94667800;7.08448400;2022-10-22T00:02:32;15.80;99.90
17333;DHT22;8784;50.94667800;7.08448400;2022-10-22T00:04:59;15.80;99.90
17333;DHT22;8784;50.94667800;7.08448400;2022-10-22T00:07:26;15.70;99.90
17333;DHT22;8784;50.94667800;7.08448400;2022-10-22T00:09:54;15.80;99.90
17333;DHT22;8784;50.94667800;7.08448400;2022-10-22T00:12:23;15.70;99.90
17333;DHT22;8784;50.94667800;7.08448400;2022-10-22T00:14:50;15.70;99.90
17333;DHT22;8784;50.94667800;7.08448400;2022-10-22T00:17:17;15.70;99.90
17333;DHT22;8784;50.94667800;7.08448400;2022-10-22T00:19:44;15.70;99.90
17333;DHT22;8784;50.94667800;7.08448400;2022-10-22T00:22:11;15.70;99.90
17333;DHT22;8784;50.94667800;7.08448400;2022-10-22T00:24:39;15.70;99.90
17333;DHT22;8784;50.94667800;7.08448400;2022-10-22T00:27:07;15.70;99.90
17333;DHT22;8784;50.94667800;7.08448400;2022-10-22T00:29:36;15.70;99.90
17333;DHT22;8784;50.94667800;7.08448400;2022-10-22T00:32:03;15.70;99.90
17333;DHT22;8784;50.94667800;7.08448400;2022-10-22T00:34:31;15.60;99.90
17333;DHT22;8784;50.94667800;7.08448400;2022-10-22T00:36:57;15.60;99.90
17333;DHT22;8784;50.94667800;7.08448400;2022-10-22T00:39:25;15.60;99.90
17333;DHT22;8784;50.94667800;7.08448400;2022-10-22T00:41:54;15.70;99.90
17333;DHT22;8784;50.94667800;7.08448400;2022-10-22T00:47:29;15.70;99.90
17333;DHT22;8784;50.94667800;7.08448400;2022-10-22T00:49:58;15.70;99.90
17333;DHT22;8784;50.94667800;7.08448400;2022-10-22T00:52:26;15.80;99.90
17333;DHT22;8784;50.94667800;7.08448400;2022-10-22T00:54:54;15.80;99.90
17333;DHT22;8784;50.94667800;7.08448400;2022-10-22T00:57:22;15.90;99.90
17333;DHT22;8784;50.94667800;7.08448400;2022-10-22T00:59:49;15.90;99.90
17333;DHT22;8784;50.94667800;7.08448400;2022-10-22T01:02:16;15.90;99.90
17333;DHT22;8784;50.94667800;7.08448400;2022-10-22T01:04:45;15.90;99.90
17333;DHT22;8784;50.94667800;7.08448400;2022-10-22T01:07:16;16.00;99.90
17333;DHT22;8784;50.94667800;7.08448400;2022-10-22T01:09:50;15.90;99.90
17333;DHT22;8784;50.94667800;7.08448400;2022-10-22T01:12:27;15.90;99.90
17333;DHT22;8784;50.94667800;7.08448400;2022-10-22T01:15:10;15.90;99.90
17333;DHT22;8784;50.94667800;7.08448400;2022-10-22T01:17:43;15.80;99.90
17333;DHT22;8784;50.94667800;7.08448400;2022-10-22T01:23:18;15.70;99.90
17333;DHT22;8784;50.94667800;7.08448400;2022-10-22T01:25:53;15.70;99.90
17333;DHT22;8784;50.94667800;7.08448400;2022-10-22T01:28:38;15.70;99.90
17333;DHT22;8784;50.94667800;7.08448400;2022-10-22T01:31:07;15.60;99.90
17333;DHT22;8784;50.94667800;7.08448400;2022-10-22T01:33:37;15.60;99.90
17333;DHT22;8784;50.94667800;7.08448400;2022-10-22T01:36:05;15.60;99.90
17333;DHT22;8784;50.94667800;7.08448400;2022-10-22T01:38:33;15.60;99.90
17333;DHT22;8784;50.94667800;7.08448400;2022-10-22T01:41:02;15.60;99.90
17333;DHT22;8784;50.94667800;7.08448400;2022-10-22T01:43:30;15.50;99.90
17333;DHT22;8784;50.94667800;7.08448400;2022-10-22T01:46:01;15.50;99.90
17333;DHT22;8784;50.94667800;7.08448400;2022-10-22T01:48:43;15.50;99.90
17333;DHT22;8784;50.94667800;7.08448400;2022-10-22T01:54:19;14.40;99.90
17333;DHT22;8784;50.94667800;7.08448400;2022-10-22T01:56:55;15.40;99.90
17333;DHT22;8784;50.94667800;7.08448400;2022-10-22T01:59:32;15.40;99.90
17333;DHT22;8784;50.94667800;7.08448400;2022-10-22T02:02:12;15.40;99.90
17333;DHT22;8784;50.94667800;7.08448400;2022-10-22T02:04:47;15.40;99.90
17333;DHT22;8784;50.94667800;7.08448400;2022-10-22T02:07:18;15.40;99.90
17333;DHT22;8784;50.94667800;7.08448400;2022-10-22T02:09:48;15.40;99.90
17333;DHT22;8784;50.94667800;7.08448400;2022-10-22T02:12:18;15.30;99.90
17333;DHT22;8784;50.94667800;7.08448400;2022-10-22T02:14:47;15.30;99.90
17333;DHT22;8784;50.94667800;7.08448400;2022-10-22T02:17:19;15.30;99.90
17333;DHT22;8784;50.94667800;7.08448400;2022-10-22T02:19:51;15.30;99.90
17333;DHT22;8784;50.94667800;7.08448400;2022-10-22T02:22:19;15.30;99.90
17333;DHT22;8784;50.94667800;7.08448400;2022-10-22T02:24:48;15.30;99.90
17333;DHT22;8784;50.94667800;7.08448400;2022-10-22T02:27:19;15.30;99.90
17333;DHT22;8784;50.94667800;7.08448400;2022-10-22T02:29:52;15.30;99.90
17333;DHT22;8784;50.94667800;7.08448400;2022-10-22T02:32:27;15.40;99.90
17333;DHT22;8784;50.94667800;7.08448400;2022-10-22T02:34:56;15.40;99.90
17333;DHT22;8784;50.94667800;7.08448400;2022-10-22T02:37:24;15.40;99.90
17333;DHT22;8784;50.94667800;7.08448400;2022-10-22T02:39:52;15.50;99.90
17333;DHT22;8784;50.94667800;7.08448400;2022-10-22T02:42:21;15.40;99.90
17333;DHT22;8784;50.94667800;7.08448400;2022-10-22T02:44:49;15.50;99.90
17333;DHT22;8784;50.94667800;7.08448400;2022-10-22T02:47:16;15.50;99.90
17333;DHT22;8784;50.94667800;7.08448400;2022-10-22T02:49:44;15.40;99.90
17333;DHT22;8784;50.94667800;7.08448400;2022-10-22T02:52:11;15.30;99.90
17333;DHT22;8784;50.94667800;7.08448400;2022-10-22T02:54:38;15.30;99.90
17333;DHT22;8784;50.94667800;7.08448400;2022-10-22T02:57:05;15.30;99.90
17333;DHT22;8784;50.94667800;7.08448400;2022-10-22T02:59:32;15.30;99.90
17333;DHT22;8784;50.94667800;7.08448400;2022-10-22T03:01:59;15.30;99.90
17333;DHT22;8784;50.94667800;7.08448400;2022-10-22T03:04:26;15.30;99.90
17333;DHT22;8784;50.94667800;7.08448400;2022-10-22T03:06:54;15.30;99.90
17333;DHT22;8784;50.94667800;7.08448400;2022-10-22T03:09:21;15.30;99.90
17333;DHT22;8784;50.94667800;7.08448400;2022-10-22T03:11:48;15.30;99.90
17333;DHT22;8784;50.94667800;7.08448400;2022-10-22T03:14:15;15.30;99.90
17333;DHT22;8784;50.94667800;7.08448400;2022-10-22T03:16:42;15.20;99.90
17333;DHT22;8784;50.94667800;7.08448400;2022-10-22T03:19:09;15.20;99.90
17333;DHT22;8784;50.94667800;7.08448400;2022-10-22T03:21:39;15.20;99.90
17333;DHT22;8784;50.94667800;7.08448400;2022-10-22T03:24:12;15.20;99.90
17333;DHT22;8784;50.94667800;7.08448400;2022-10-22T03:26:40;15.20;99.90
17333;DHT22;8784;50.94667800;7.08448400;2022-10-22T03:29:09;15.20;99.90
17333;DHT22;8784;50.94667800;7.08448400;2022-10-22T03:31:37;15.20;99.90
17333;DHT22;8784;50.94667800;7.08448400;2022-10-22T03:34:04;15.20;99.90
17333;DHT22;8784;50.94667800;7.08448400;2022-10-22T03:36:31;15.10;99.90
17333;DHT22;8784;50.94667800;7.08448400;2022-10-22T03:38:59;15.10;99.90
17333;DHT22;8784;50.94667800;7.08448400;2022-10-22T03:41:31;15.10;99.90
17333;DHT22;8784;50.94667800;7.08448400;2022-10-22T03:43:59;15.10;99.90
17333;DHT22;8784;50.94667800;7.08448400;2022-10-22T03:46:26;15.10;99.90
17333;DHT22;8784;50.94667800;7.08448400;2022-10-22T03:48:53;15.20;99.90
17333;DHT22;8784;50.94667800;7.08448400;2022-10-22T03:51:20;15.20;99.90
17333;DHT22;8784;50.94667800;7.08448400;2022-10-22T03:53:47;15.20;99.90
17333;DHT22;8784;50.94667800;7.08448400;2022-10-22T03:56:16;15.30;99.90
17333;DHT22;8784;50.94667800;7.08448400;2022-10-22T03:58:44;15.30;99.90
17333;DHT22;8784;50.94667800;7.08448400;2022-10-22T04:01:12;15.30;99.90
17333;DHT22;8784;50.94667800;7.08448400;2022-10-22T04:03:39;15.30;99.90
17333;DHT22;8784;50.94667800;7.08448400;2022-10-22T04:06:07;15.30;99.90
17333;DHT22;8784;50.94667800;7.08448400;2022-10-22T04:08:35;15.20;99.90
17333;DHT22;8784;50.94667800;7.08448400;2022-10-22T04:11:02;15.20;99.90
17333;DHT22;8784;50.94667800;7.08448400;2022-10-22T04:13:29;15.20;99.90
17333;DHT22;8784;50.94667800;7.08448400;2022-10-22T04:16:06;15.20;99.90
17333;DHT22;8784;50.94667800;7.08448400;2022-10-22T04:18:34;15.20;99.90
17333;DHT22;8784;50.94667800;7.08448400;2022-10-22T04:21:01;15.20;99.90
17333;DHT22;8784;50.94667800;7.08448400;2022-10-22T04:23:28;15.20;99.90
17333;DHT22;8784;50.94667800;7.08448400;2022-10-22T04:25:57;15.20;99.90
17333;DHT22;8784;50.94667800;7.08448400;2022-10-22T04:28:24;15.20;99.90
17333;DHT22;8784;50.94667800;7.08448400;2022-10-22T04:30:51;15.20;99.90
17333;DHT22;8784;50.94667800;7.08448400;2022-10-22T04:33:20;15.20;99.90
17333;DHT22;8784;50.94667800;7.08448400;2022-10-22T04:35:47;15.20;99.90
17333;DHT22;8784;50.94667800;7.08448400;2022-10-22T04:38:14;15.20;99.90
17333;DHT22;8784;50.94667800;7.08448400;2022-10-22T04:40:41;15.20;99.90
17333;DHT22;8784;50.94667800;7.08448400;2022-10-22T04:43:08;15.20;99.90
17333;DHT22;8784;50.94667800;7.08448400;2022-10-22T04:45:35;15.20;99.90
17333;DHT22;8784;50.94667800;7.08448400;2022-10-22T04:48:02;15.20;99.90
17333;DHT22;8784;50.94667800;7.08448400;2022-10-22T04:50:31;15.20;99.90
17333;DHT22;8784;50.94667800;7.08448400;2022-10-22T04:52:57;15.20;99.90
17333;DHT22;8784;50.94667800;7.08448400;2022-10-22T04:55:24;15.20;99.90
17333;DHT22;8784;50.94667800;7.08448400;2022-10-22T04:57:51;15.10;99.90
17333;DHT22;8784;50.94667800;7.08448400;2022-10-22T05:00:18;15.10;99.90
17333;DHT22;8784;50.94667800;7.08448400;2022-10-22T05:02:48;15.20;99.90
17333;DHT22;8784;50.94667800;7.08448400;2022-10-22T05:05:15;15.20;99.90
17333;DHT22;8784;50.94667800;7.08448400;2022-10-22T05:07:44;15.10;99.90
17333;DHT22;8784;50.94667800;7.08448400;2022-10-22T05:10:11;15.10;99.90
17333;DHT22;8784;50.94667800;7.08448400;2022-10-22T05:12:37;15.10;99.90
17333;DHT22;8784;50.94667800;7.08448400;2022-10-22T05:15:05;15.10;99.90
17333;DHT22;8784;50.94667800;7.08448400;2022-10-22T05:17:35;15.00;99.90
17333;DHT22;8784;50.94667800;7.08448400;2022-10-22T05:20:02;15.00;99.90
17333;DHT22;8784;50.94667800;7.08448400;2022-10-22T05:22:29;15.10;99.90
17333;DHT22;8784;50.94667800;7.08448400;2022-10-22T05:24:57;14.90;99.90
17333;DHT22;8784;50.94667800;7.08448400;2022-10-22T05:27:24;14.90;99.90
17333;DHT22;8784;50.94667800;7.08448400;2022-10-22T05:29:51;14.80;99.90
17333;DHT22;8784;50.94667800;7.08448400;2022-10-22T05:32:18;14.80;99.90
17333;DHT22;8784;50.94667800;7.08448400;2022-10-22T05:34:46;14.80;99.90
17333;DHT22;8784;50.94667800;7.08448400;2022-10-22T05:37:13;14.80;99.90
17333;DHT22;8784;50.94667800;7.08448400;2022-10-22T05:39:40;14.70;99.90
17333;DHT22;8784;50.94667800;7.08448400;2022-10-22T05:42:08;14.80;99.90
17333;DHT22;8784;50.94667800;7.08448400;2022-10-22T05:44:35;14.80;99.90
17333;DHT22;8784;50.94667800;7.08448400;2022-10-22T05:47:03;14.80;99.90
17333;DHT22;8784;50.94667800;7.08448400;2022-10-22T05:49:30;14.80;99.90
17333;DHT22;8784;50.94667800;7.08448400;2022-10-22T05:51:57;14.80;99.90
17333;DHT22;8784;50.94667800;7.08448400;2022-10-22T05:54:24;14.80;99.90
17333;DHT22;8784;50.94667800;7.08448400;2022-10-22T05:56:51;14.80;99.90
17333;DHT22;8784;50.94667800;7.08448400;2022-10-22T05:59:21;14.80;99.90
17333;DHT22;8784;50.94667800;7.08448400;2022-10-22T06:01:48;14.80;99.90
17333;DHT22;8784;50.94667800;7.08448400;2022-10-22T06:04:15;14.80;99.90
17333;DHT22;8784;50.94667800;7.08448400;2022-10-22T06:06:44;14.80;99.90
17333;DHT22;8784;50.94667800;7.08448400;2022-10-22T06:09:16;14.80;99.90
17333;DHT22;8784;50.94667800;7.08448400;2022-10-22T06:11:43;14.80;99.90
17333;DHT22;8784;50.94667800;7.08448400;2022-10-22T06:14:11;14.80;99.90
17333;DHT22;8784;50.94667800;7.08448400;2022-10-22T06:16:39;14.80;99.90
17333;DHT22;8784;50.94667800;7.08448400;2022-10-22T06:19:08;14.80;99.90
17333;DHT22;8784;50.94667800;7.08448400;2022-10-22T06:21:35;14.80;99.90
17333;DHT22;8784;50.94667800;7.08448400;2022-10-22T06:24:03;14.80;99.90
17333;DHT22;8784;50.94667800;7.08448400;2022-10-22T06:26:30;14.90;99.90
17333;DHT22;8784;50.94667800;7.08448400;2022-10-22T06:28:57;14.90;99.90
17333;DHT22;8784;50.94667800;7.08448400;2022-10-22T06:31:25;15.00;99.90
17333;DHT22;8784;50.94667800;7.08448400;2022-10-22T06:33:55;15.00;99.90
17333;DHT22;8784;50.94667800;7.08448400;2022-10-22T06:36:23;15.10;99.90
17333;DHT22;8784;50.94667800;7.08448400;2022-10-22T06:38:51;15.20;99.90
17333;DHT22;8784;50.94667800;7.08448400;2022-10-22T06:41:19;15.20;99.90
17333;DHT22;8784;50.94667800;7.08448400;2022-10-22T06:43:46;15.30;99.90
17333;DHT22;8784;50.94667800;7.08448400;2022-10-22T06:46:15;15.40;99.90
17333;DHT22;8784;50.94667800;7.08448400;2022-10-22T06:48:46;15.50;99.90
17333;DHT22;8784;50.94667800;7.08448400;2022-10-22T06:51:15;15.60;99.90
17333;DHT22;8784;50.94667800;7.08448400;2022-10-22T06:53:43;15.60;99.90
17333;DHT22;8784;50.94667800;7.08448400;2022-10-22T06:56:12;15.70;99.90
17333;DHT22;8784;50.94667800;7.08448400;2022-10-22T06:58:40;15.70;99.90
17333;DHT22;8784;50.94667800;7.08448400;2022-10-22T07:01:08;15.70;99.90
17333;DHT22;8784;50.94667800;7.08448400;2022-10-22T07:03:36;15.70;99.90
17333;DHT22;8784;50.94667800;7.08448400;2022-10-22T07:06:07;15.80;99.90
17333;DHT22;8784;50.94667800;7.08448400;2022-10-22T07:08:37;15.80;99.90
17333;DHT22;8784;50.94667800;7.08448400;2022-10-22T07:11:07;15.80;99.90
17333;DHT22;8784;50.94667800;7.08448400;2022-10-22T07:13:35;15.80;99.90
17333;DHT22;8784;50.94667800;7.08448400;2022-10-22T07:16:02;15.70;99.90
17333;DHT22;8784;50.94667800;7.08448400;2022-10-22T07:18:30;15.70;99.90
17333;DHT22;8784;50.94667800;7.08448400;2022-10-22T07:20:58;15.70;99.90
17333;DHT22;8784;50.94667800;7.08448400;2022-10-22T07:23:26;15.70;99.90
17333;DHT22;8784;50.94667800;7.08448400;2022-10-22T07:25:55;15.70;99.90
17333;DHT22;8784;50.94667800;7.08448400;2022-10-22T07:28:22;15.70;99.90
17333;DHT22;8784;50.94667800;7.08448400;2022-10-22T07:30:49;15.70;99.90
17333;DHT22;8784;50.94667800;7.08448400;2022-10-22T07:33:16;15.60;99.90
17333;DHT22;8784;50.94667800;7.08448400;2022-10-22T07:35:43;15.70;99.90
17333;DHT22;8784;50.94667800;7.08448400;2022-10-22T07:38:10;15.70;99.90
17333;DHT22;8784;50.94667800;7.08448400;2022-10-22T07:40:37;15.60;99.90
17333;DHT22;8784;50.94667800;7.08448400;2022-10-22T07:43:06;15.70;99.90
17333;DHT22;8784;50.94667800;7.08448400;2022-10-22T07:45:33;15.80;99.90
17333;DHT22;8784;50.94667800;7.08448400;2022-10-22T07:48:00;15.90;99.90
17333;DHT22;8784;50.94667800;7.08448400;2022-10-22T07:50:27;16.00;99.90
17333;DHT22;8784;50.94667800;7.08448400;2022-10-22T07:52:54;16.20;99.90
17333;DHT22;8784;50.94667800;7.08448400;2022-10-22T07:55:21;16.30;99.90
17333;DHT22;8784;50.94667800;7.08448400;2022-10-22T07:57:49;16.50;99.90
17333;DHT22;8784;50.94667800;7.08448400;2022-10-22T08:00:19;16.70;99.90
17333;DHT22;8784;50.94667800;7.08448400;2022-10-22T08:02:46;16.80;99.90
17333;DHT22;8784;50.94667800;7.08448400;2022-10-22T08:05:13;17.00;99.90
17333;DHT22;8784;50.94667800;7.08448400;2022-10-22T08:07:41;17.10;99.90
17333;DHT22;8784;50.94667800;7.08448400;2022-10-22T08:10:09;17.20;99.90
17333;DHT22;8784;50.94667800;7.08448400;2022-10-22T08:12:36;17.30;99.90
17333;DHT22;8784;50.94667800;7.08448400;2022-10-22T08:15:04;17.40;99.90
17333;DHT22;8784;50.94667800;7.08448400;2022-10-22T08:17:33;17.50;99.90
17333;DHT22;8784;50.94667800;7.08448400;2022-10-22T08:20:00;17.60;99.90
17333;DHT22;8784;50.94667800;7.08448400;2022-10-22T08:22:27;17.70;99.90
17333;DHT22;8784;50.94667800;7.08448400;2022-10-22T08:24:54;17.80;99.90
17333;DHT22;8784;50.94667800;7.08448400;2022-10-22T08:27:21;17.80;99.90
17333;DHT22;8784;50.94667800;7.08448400;2022-10-22T08:29:48;17.90;99.90
17333;DHT22;8784;50.94667800;7.08448400;2022-10-22T08:32:16;17.90;99.90
17333;DHT22;8784;50.94667800;7.08448400;2022-10-22T08:34:44;17.90;99.90
17333;DHT22;8784;50.94667800;7.08448400;2022-10-22T08:37:11;17.80;99.90
17333;DHT22;8784;50.94667800;7.08448400;2022-10-22T08:39:39;17.70;99.90
17333;DHT22;8784;50.94667800;7.08448400;2022-10-22T08:42:24;17.70;99.90
17333;DHT22;8784;50.94667800;7.08448400;2022-10-22T08:45:05;17.60;99.90
17333;DHT22;8784;50.94667800;7.08448400;2022-10-22T08:47:56;17.60;99.90
17333;DHT22;8784;50.94667800;7.08448400;2022-10-22T08:50:31;17.50;99.90
17333;DHT22;8784;50.94667800;7.08448400;2022-10-22T08:53:02;17.60;99.90
17333;DHT22;8784;50.94667800;7.08448400;2022-10-22T08:55:31;17.50;99.90
17333;DHT22;8784;50.94667800;7.08448400;2022-10-22T08:58:04;17.40;99.90
17333;DHT22;8784;50.94667800;7.08448400;2022-10-22T09:00:44;17.50;99.90
17333;DHT22;8784;50.94667800;7.08448400;2022-10-22T09:03:27;17.40;99.90
17333;DHT22;8784;50.94667800;7.08448400;2022-10-22T09:06:04;17.50;99.90
17333;DHT22;8784;50.94667800;7.08448400;2022-10-22T09:08:35;17.40;99.90
17333;DHT22;8784;50.94667800;7.08448400;2022-10-22T09:11:08;17.50;99.90
17333;DHT22;8784;50.94667800;7.08448400;2022-10-22T09:13:40;17.50;99.90
17333;DHT22;8784;50.94667800;7.08448400;2022-10-22T09:16:15;17.50;99.90
17333;DHT22;8784;50.94667800;7.08448400;2022-10-22T09:18:52;17.60;99.90
17333;DHT22;8784;50.94667800;7.08448400;2022-10-22T09:21:29;17.60;99.90
17333;DHT22;8784;50.94667800;7.08448400;2022-10-22T09:24:05;17.60;99.90
17333;DHT22;8784;50.94667800;7.08448400;2022-10-22T09:26:38;17.60;99.90
17333;DHT22;8784;50.94667800;7.08448400;2022-10-22T09:29:08;17.50;99.90
17333;DHT22;8784;50.94667800;7.08448400;2022-10-22T09:31:39;17.60;99.90
17333;DHT22;8784;50.94667800;7.08448400;2022-10-22T09:34:06;17.60;99.90
17333;DHT22;8784;50.94667800;7.08448400;2022-10-22T09:36:37;17.60;99.90
17333;DHT22;8784;50.94667800;7.08448400;2022-10-22T09:39:20;17.60;99.90
17333;DHT22;8784;50.94667800;7.08448400;2022-10-22T09:41:48;17.60;99.90
17333;DHT22;8784;50.94667800;7.08448400;2022-10-22T09:44:16;17.60;99.90
17333;DHT22;8784;50.94667800;7.08448400;2022-10-22T09:46:44;17.60;99.90
17333;DHT22;8784;50.94667800;7.08448400;2022-10-22T09:49:12;17.70;99.90
17333;DHT22;8784;50.94667800;7.08448400;2022-10-22T09:51:48;17.70;99.90
17333;DHT22;8784;50.94667800;7.08448400;2022-10-22T09:54:18;17.70;99.90
17333;DHT22;8784;50.94667800;7.08448400;2022-10-22T09:56:51;17.70;99.90
17333;DHT22;8784;50.94667800;7.08448400;2022-10-22T09:59:25;17.70;99.90
17333;DHT22;8784;50.94667800;7.08448400;2022-10-22T10:02:02;17.80;99.90
17333;DHT22;8784;50.94667800;7.08448400;2022-10-22T10:04:33;17.70;99.90
17333;DHT22;8784;50.94667800;7.08448400;2022-10-22T10:07:03;17.80;99.90
17333;DHT22;8784;50.94667800;7.08448400;2022-10-22T10:09:39;17.80;99.90
17333;DHT22;8784;50.94667800;7.08448400;2022-10-22T10:12:12;17.80;99.90
17333;DHT22;8784;50.94667800;7.08448400;2022-10-22T10:14:47;17.80;99.90
17333;DHT22;8784;50.94667800;7.08448400;2022-10-22T10:17:28;17.80;99.90
17333;DHT22;8784;50.94667800;7.08448400;2022-10-22T10:20:10;17.80;99.90
17333;DHT22;8784;50.94667800;7.08448400;2022-10-22T10:22:48;17.80;99.90
17333;DHT22;8784;50.94667800;7.08448400;2022-10-22T10:25:41;17.80;99.90
17333;DHT22;8784;50.94667800;7.08448400;2022-10-22T10:28:21;17.90;99.90
17333;DHT22;8784;50.94667800;7.08448400;2022-10-22T10:31:00;17.90;99.90
17333;DHT22;8784;50.94667800;7.08448400;2022-10-22T10:33:39;17.90;99.90
17333;DHT22;8784;50.94667800;7.08448400;2022-10-22T10:36:11;17.90;99.90
17333;DHT22;8784;50.94667800;7.08448400;2022-10-22T10:38:50;17.90;99.90
17333;DHT22;8784;50.94667800;7.08448400;2022-10-22T10:41:26;18.00;99.90
17333;DHT22;8784;50.94667800;7.08448400;2022-10-22T10:44:11;18.00;99.90
17333;DHT22;8784;50.94667800;7.08448400;2022-10-22T10:46:46;18.00;99.90
17333;DHT22;8784;50.94667800;7.08448400;2022-10-22T10:49:18;18.10;99.90
17333;DHT22;8784;50.94667800;7.08448400;2022-10-22T10:51:52;18.00;99.90
17333;DHT22;8784;50.94667800;7.08448400;2022-10-22T10:54:35;18.10;99.90
17333;DHT22;8784;50.94667800;7.08448400;2022-10-22T10:57:12;18.20;99.90
17333;DHT22;8784;50.94667800;7.08448400;2022-10-22T10:59:57;18.30;99.90
17333;DHT22;8784;50.94667800;7.08448400;2022-10-22T11:02:47;18.30;99.90
17333;DHT22;8784;50.94667800;7.08448400;2022-10-22T11:05:29;18.40;99.90
17333;DHT22;8784;50.94667800;7.08448400;2022-10-22T11:08:02;18.50;99.90
17333;DHT22;8784;50.94667800;7.08448400;2022-10-22T11:10:36;18.50;99.90
17333;DHT22;8784;50.94667800;7.08448400;2022-10-22T11:13:10;18.60;99.90
17333;DHT22;8784;50.94667800;7.08448400;2022-10-22T11:15:39;18.60;99.90
17333;DHT22;8784;50.94667800;7.08448400;2022-10-22T11:18:14;18.70;99.90
17333;DHT22;8784;50.94667800;7.08448400;2022-10-22T11:20:51;18.70;99.90
17333;DHT22;8784;50.94667800;7.08448400;2022-10-22T11:23:25;18.70;99.90
17333;DHT22;8784;50.94667800;7.08448400;2022-10-22T11:25:55;18.80;99.90
17333;DHT22;8784;50.94667800;7.08448400;2022-10-22T11:28:26;18.80;99.90
17333;DHT22;8784;50.94667800;7.08448400;2022-10-22T11:30:59;18.80;99.90
17333;DHT22;8784;50.94667800;7.08448400;2022-10-22T11:33:35;18.90;99.90
17333;DHT22;8784;50.94667800;7.08448400;2022-10-22T11:36:05;18.90;99.90
17333;DHT22;8784;50.94667800;7.08448400;2022-10-22T11:38:33;18.80;99.90
17333;DHT22;8784;50.94667800;7.08448400;2022-10-22T11:41:11;18.80;99.90
17333;DHT22;8784;50.94667800;7.08448400;2022-10-22T11:43:55;18.80;99.90
17333;DHT22;8784;50.94667800;7.08448400;2022-10-22T11:46:28;18.80;99.90
17333;DHT22;8784;50.94667800;7.08448400;2022-10-22T11:49:14;18.70;99.90
17333;DHT22;8784;50.94667800;7.08448400;2022-10-22T11:51:44;18.60;99.90
17333;DHT22;8784;50.94667800;7.08448400;2022-10-22T11:54:28;18.60;99.90
17333;DHT22;8784;50.94667800;7.08448400;2022-10-22T11:57:17;18.60;99.90
17333;DHT22;8784;50.94667800;7.08448400;2022-10-22T11:59:49;18.50;99.90
17333;DHT22;8784;50.94667800;7.08448400;2022-10-22T12:02:28;18.60;99.90
17333;DHT22;8784;50.94667800;7.08448400;2022-10-22T12:05:18;18.60;99.90
17333;DHT22;8784;50.94667800;7.08448400;2022-10-22T12:07:52;18.60;99.90
17333;DHT22;8784;50.94667800;7.08448400;2022-10-22T12:10:25;18.60;99.90
17333;DHT22;8784;50.94667800;7.08448400;2022-10-22T12:12:56;18.60;99.90
17333;DHT22;8784;50.94667800;7.08448400;2022-10-22T12:15:26;18.60;99.90
17333;DHT22;8784;50.94667800;7.08448400;2022-10-22T12:17:59;18.60;99.90
17333;DHT22;8784;50.94667800;7.08448400;2022-10-22T12:20:27;18.60;99.90
17333;DHT22;8784;50.94667800;7.08448400;2022-10-22T12:22:56;18.50;99.90
17333;DHT22;8784;50.94667800;7.08448400;2022-10-22T12:25:29;18.50;99.90
17333;DHT22;8784;50.94667800;7.08448400;2022-10-22T12:27:59;18.50;99.90
17333;DHT22;8784;50.94667800;7.08448400;2022-10-22T12:30:28;18.50;99.90
17333;DHT22;8784;50.94667800;7.08448400;2022-10-22T12:32:58;18.60;99.90
17333;DHT22;8784;50.94667800;7.08448400;2022-10-22T12:35:27;18.70;99.90
17333;DHT22;8784;50.94667800;7.08448400;2022-10-22T12:37:56;18.80;99.90
17333;DHT22;8784;50.94667800;7.08448400;2022-10-22T12:40:26;18.80;99.90
17333;DHT22;8784;50.94667800;7.08448400;2022-10-22T12:42:55;18.90;99.90
17333;DHT22;8784;50.94667800;7.08448400;2022-10-22T12:45:26;19.00;99.90
17333;DHT22;8784;50.94667800;7.08448400;2022-10-22T12:47:57;19.10;99.90
17333;DHT22;8784;50.94667800;7.08448400;2022-10-22T12:50:31;19.20;99.90
17333;DHT22;8784;50.94667800;7.08448400;2022-10-22T12:53:02;19.20;99.90
17333;DHT22;8784;50.94667800;7.08448400;2022-10-22T12:55:30;19.30;99.90
17333;DHT22;8784;50.94667800;7.08448400;2022-10-22T12:57:59;19.50;99.90
17333;DHT22;8784;50.94667800;7.08448400;2022-10-22T13:00:34;19.60;99.90
17333;DHT22;8784;50.94667800;7.08448400;2022-10-22T13:03:05;19.70;99.90
17333;DHT22;8784;50.94667800;7.08448400;2022-10-22T13:05:33;19.70;99.90
17333;DHT22;8784;50.94667800;7.08448400;2022-10-22T13:08:07;19.70;99.90
17333;DHT22;8784;50.94667800;7.08448400;2022-10-22T13:10:36;19.70;99.90
17333;DHT22;8784;50.94667800;7.08448400;2022-10-22T13:13:04;19.70;99.90
17333;DHT22;8784;50.94667800;7.08448400;2022-10-22T13:15:36;19.70;99.90
17333;DHT22;8784;50.94667800;7.08448400;2022-10-22T13:18:06;19.80;99.90
17333;DHT22;8784;50.94667800;7.08448400;2022-10-22T13:20:50;19.80;99.90
17333;DHT22;8784;50.94667800;7.08448400;2022-10-22T13:23:18;19.90;99.90
17333;DHT22;8784;50.94667800;7.08448400;2022-10-22T13:25:56;20.00;99.90
17333;DHT22;8784;50.94667800;7.08448400;2022-10-22T13:28:23;20.00;99.90
17333;DHT22;8784;50.94667800;7.08448400;2022-10-22T13:30:53;20.10;99.90
17333;DHT22;8784;50.94667800;7.08448400;2022-10-22T13:33:23;20.20;99.90
17333;DHT22;8784;50.94667800;7.08448400;2022-10-22T13:35:52;20.00;99.90
17333;DHT22;8784;50.94667800;7.08448400;2022-10-22T13:38:22;20.00;99.90
17333;DHT22;8784;50.94667800;7.08448400;2022-10-22T13:40:49;19.90;99.90
17333;DHT22;8784;50.94667800;7.08448400;2022-10-22T13:43:17;19.90;99.90
17333;DHT22;8784;50.94667800;7.08448400;2022-10-22T13:45:46;19.90;99.90
17333;DHT22;8784;50.94667800;7.08448400;2022-10-22T13:48:17;19.90;99.90
17333;DHT22;8784;50.94667800;7.08448400;2022-10-22T13:50:46;19.90;99.90
17333;DHT22;8784;50.94667800;7.08448400;2022-10-22T13:53:16;20.10;99.90
17333;DHT22;8784;50.94667800;7.08448400;2022-10-22T13:55:44;20.10;99.90
17333;DHT22;8784;50.94667800;7.08448400;2022-10-22T13:58:14;20.20;99.90
17333;DHT22;8784;50.94667800;7.08448400;2022-10-22T14:00:43;20.10;99.90